createdAt,value
2019-02-18T00:00:39.738Z,10.10
2019-02-18T00:01:39.701Z,10.50
2019-02-18T00:02:39.679Z,10.00
2019-02-18T00:03:39.657Z,10.40
2019-02-18T00:04:39.633Z,10.50
2019-02-18T00:05:39.611Z,9.80
2019-02-18T00:06:39.588Z,10.30
2019-02-18T00:07:39.572Z,9.90
2019-02-18T00:08:39.541Z,10.20
2019-02-18T00:09:39.516Z,10.10
2019-02-18T00:10:39.498Z,10.10
2019-02-18T00:11:39.473Z,9.70
2019-02-18T00:12:39.448Z,10.60
2019-02-18T00:13:39.424Z,9.70
2019-02-18T00:14:39.404Z,10.50
2019-02-18T00:15:39.380Z,11.10
2019-02-18T00:16:39.356Z,10.60
2019-02-18T00:17:39.350Z,11.00
2019-02-18T00:18:39.315Z,10.90
2019-02-18T00:19:39.295Z,10.70
2019-02-18T00:20:39.271Z,10.70
2019-02-18T00:21:39.240Z,11.10
2019-02-18T00:22:39.224Z,10.70
2019-02-18T00:23:39.203Z,11.10
2019-02-18T00:24:39.225Z,10.80
2019-02-18T00:25:39.153Z,10.70
2019-02-18T00:26:39.124Z,10.80
2019-02-18T00:27:39.101Z,10.30
2019-02-18T00:28:39.077Z,10.80
2019-02-18T00:29:39.077Z,11.00
2019-02-18T00:30:39.033Z,10.70
2019-02-18T00:31:39.007Z,10.90
2019-02-18T00:32:38.984Z,10.90
2019-02-18T00:33:38.974Z,10.60
2019-02-18T00:34:38.943Z,10.40
2019-02-18T00:35:38.914Z,10.90
2019-02-18T00:36:38.889Z,10.90
2019-02-18T00:37:38.875Z,10.80
2019-02-18T00:38:38.853Z,10.40
2019-02-18T00:39:38.839Z,11.00
2019-02-18T00:40:38.801Z,10.90
2019-02-18T00:41:38.777Z,10.50
2019-02-18T00:42:38.751Z,10.70
2019-02-18T00:43:38.728Z,10.80
2019-02-18T00:44:38.702Z,10.40
2019-02-18T00:45:38.680Z,11.10
2019-02-18T00:46:38.655Z,10.50
2019-02-18T00:47:38.633Z,9.90
2019-02-18T00:48:38.610Z,10.90
2019-02-18T00:49:38.591Z,10.70
2019-02-18T00:50:38.572Z,10.70
2019-02-18T00:51:38.553Z,10.20
2019-02-18T00:52:38.514Z,10.50
2019-02-18T00:53:38.502Z,10.40
2019-02-18T00:54:38.485Z,10.40
2019-02-18T00:55:38.447Z,10.30
2019-02-18T00:56:38.420Z,11.60
2019-02-18T00:57:38.397Z,10.30
2019-02-18T00:58:38.373Z,11.10
2019-02-18T00:59:38.355Z,11.20
2019-02-18T01:00:38.327Z,11.20
2019-02-18T01:01:38.306Z,10.50
2019-02-18T01:02:38.281Z,11.20
2019-02-18T01:03:38.260Z,10.80
2019-02-18T01:04:38.233Z,11.50
2019-02-18T01:05:38.208Z,10.90
2019-02-18T01:06:38.186Z,11.50
2019-02-18T01:07:38.163Z,11.30
2019-02-18T01:08:38.138Z,10.60
2019-02-18T01:09:38.113Z,10.60
2019-02-18T01:10:38.099Z,11.40
2019-02-18T01:11:38.077Z,11.30
2019-02-18T01:12:38.053Z,10.90
2019-02-18T01:13:38.021Z,10.60
2019-02-18T01:14:37.997Z,10.80
2019-02-18T01:15:37.973Z,11.30
2019-02-18T01:16:37.957Z,11.00
2019-02-18T01:17:37.926Z,10.80
2019-02-18T01:18:37.905Z,11.00
2019-02-18T01:19:37.885Z,11.20
2019-02-18T01:20:37.853Z,11.10
2019-02-18T01:21:37.841Z,11.40
2019-02-18T01:22:37.808Z,11.00
2019-02-18T01:23:37.783Z,11.40
2019-02-18T01:24:37.759Z,10.60
2019-02-18T01:25:37.744Z,11.30
2019-02-18T01:26:37.721Z,11.20
2019-02-18T01:27:37.689Z,11.40
2019-02-18T01:28:37.664Z,11.10
2019-02-18T01:29:37.643Z,11.10
2019-02-18T01:30:37.617Z,10.90
2019-02-18T01:31:37.594Z,10.90
2019-02-18T01:32:37.568Z,11.10
2019-02-18T01:33:37.551Z,11.30
2019-02-18T01:34:37.523Z,11.70
2019-02-18T01:35:37.499Z,11.40
2019-02-18T01:36:37.473Z,11.80
2019-02-18T01:37:45.335Z,11.20
2019-02-18T01:38:37.426Z,11.80
2019-02-18T01:39:37.402Z,11.20
2019-02-18T01:40:37.381Z,11.60
2019-02-18T01:41:37.356Z,10.90
2019-02-18T01:42:37.342Z,11.30
2019-02-18T01:43:37.307Z,11.60
2019-02-18T01:44:37.287Z,10.40
2019-02-18T01:45:37.263Z,11.50
2019-02-18T01:46:37.234Z,10.60
2019-02-18T01:47:37.210Z,11.50
2019-02-18T01:48:37.187Z,10.70
2019-02-18T01:49:37.163Z,10.50
2019-02-18T01:50:37.141Z,11.00
2019-02-18T01:51:37.115Z,11.10
2019-02-18T01:52:37.097Z,11.30
2019-02-18T01:53:37.067Z,11.00
2019-02-18T01:54:37.043Z,11.10
2019-02-18T01:55:37.019Z,11.50
2019-02-18T01:56:37.003Z,10.40
2019-02-18T01:57:36.972Z,10.90
2019-02-18T01:58:36.949Z,11.10
2019-02-18T01:59:36.923Z,10.90
2019-02-18T02:00:36.907Z,10.70
2019-02-18T02:01:36.877Z,11.20
2019-02-18T02:02:36.855Z,10.10
2019-02-18T02:03:36.828Z,10.70
2019-02-18T02:04:36.804Z,11.30
2019-02-18T02:05:36.790Z,11.70
2019-02-18T02:06:36.755Z,11.40
2019-02-18T02:07:36.736Z,10.90
2019-02-18T02:08:36.759Z,11.30
2019-02-18T02:09:36.688Z,11.40
2019-02-18T02:10:36.668Z,11.30
2019-02-18T02:11:36.645Z,11.10
2019-02-18T02:12:36.611Z,10.90
2019-02-18T02:13:36.639Z,11.40
2019-02-18T02:14:36.572Z,11.50
2019-02-18T02:15:36.549Z,10.70
2019-02-18T02:16:36.530Z,10.60
2019-02-18T02:17:36.490Z,11.30
2019-02-18T02:18:36.468Z,11.20
2019-02-18T02:19:36.447Z,11.20
2019-02-18T02:20:36.428Z,11.20
2019-02-18T02:21:36.396Z,11.30
2019-02-18T02:22:36.377Z,10.80
2019-02-18T02:23:36.346Z,11.50
2019-02-18T02:24:36.333Z,11.50
2019-02-18T02:25:36.359Z,11.30
2019-02-18T02:26:36.282Z,10.90
2019-02-18T02:27:36.254Z,11.40
2019-02-18T02:28:36.233Z,10.80
2019-02-18T02:29:36.201Z,12.00
2019-02-18T02:30:36.181Z,11.30
2019-02-18T02:31:36.155Z,11.50
2019-02-18T02:32:36.130Z,10.90
2019-02-18T02:33:36.106Z,11.30
2019-02-18T02:34:36.081Z,10.70
2019-02-18T02:35:36.057Z,10.80
2019-02-18T02:36:36.037Z,11.80
2019-02-18T02:37:36.009Z,10.80
2019-02-18T02:38:35.991Z,11.20
2019-02-18T02:39:35.961Z,10.90
2019-02-18T02:40:35.943Z,11.40
2019-02-18T02:41:35.911Z,10.90
2019-02-18T02:42:35.889Z,10.90
2019-02-18T02:43:35.873Z,11.30
2019-02-18T02:44:35.842Z,11.30
2019-02-18T02:45:35.816Z,11.40
2019-02-18T02:46:35.791Z,10.80
2019-02-18T02:47:35.767Z,11.30
2019-02-18T02:48:35.742Z,11.40
2019-02-18T02:49:35.718Z,10.90
2019-02-18T02:50:35.693Z,11.50
2019-02-18T02:51:35.670Z,10.90
2019-02-18T02:52:35.654Z,11.20
2019-02-18T02:53:35.619Z,10.70
2019-02-18T02:54:35.595Z,11.80
2019-02-18T02:55:35.577Z,11.10
2019-02-18T02:56:37.321Z,11.60
2019-02-18T02:57:35.523Z,11.40
2019-02-18T02:58:35.499Z,11.10
2019-02-18T02:59:35.474Z,11.40
2019-02-18T03:00:35.449Z,12.00
2019-02-18T03:01:35.426Z,11.40
2019-02-18T03:02:35.402Z,11.00
2019-02-18T03:03:35.380Z,11.10
2019-02-18T03:04:35.353Z,11.50
2019-02-18T03:05:35.327Z,11.60
2019-02-18T03:06:35.304Z,10.70
2019-02-18T03:07:35.289Z,11.30
2019-02-18T03:08:35.260Z,10.30
2019-02-18T03:09:35.231Z,10.60
2019-02-18T03:10:35.210Z,11.10
2019-02-18T03:11:35.187Z,10.70
2019-02-18T03:12:35.157Z,11.50
2019-02-18T03:13:35.134Z,11.00
2019-02-18T03:14:35.108Z,11.40
2019-02-18T03:15:35.084Z,11.40
2019-02-18T03:16:35.058Z,11.90
2019-02-18T03:17:35.036Z,11.00
2019-02-18T03:18:35.013Z,11.40
2019-02-18T03:19:34.997Z,11.50
2019-02-18T03:20:34.963Z,10.60
2019-02-18T03:21:34.939Z,11.10
2019-02-18T03:22:34.920Z,11.50
2019-02-18T03:23:34.890Z,11.70
2019-02-18T03:24:34.865Z,11.20
2019-02-18T03:25:34.862Z,11.50
2019-02-18T03:26:34.815Z,11.30
2019-02-18T03:27:34.790Z,11.40
2019-02-18T03:28:34.765Z,11.70
2019-02-18T03:29:34.741Z,11.10
2019-02-18T03:30:34.726Z,10.60
2019-02-18T03:31:34.694Z,11.00
2019-02-18T03:32:34.671Z,10.90
2019-02-18T03:33:34.644Z,10.80
2019-02-18T03:34:34.619Z,11.30
2019-02-18T03:35:34.599Z,11.60
2019-02-18T03:36:34.575Z,10.90
2019-02-18T03:37:34.546Z,11.40
2019-02-18T03:38:34.520Z,11.10
2019-02-18T03:39:34.497Z,10.70
2019-02-18T03:40:34.472Z,11.10
2019-02-18T03:41:34.447Z,11.40
2019-02-18T03:42:34.423Z,11.40
2019-02-18T03:43:34.398Z,11.10
2019-02-18T03:44:34.372Z,11.60
2019-02-18T03:45:34.351Z,10.80
2019-02-18T03:46:34.363Z,11.40
2019-02-18T03:47:34.303Z,11.80
2019-02-18T03:48:34.274Z,11.00
2019-02-18T03:49:34.251Z,11.00
2019-02-18T03:50:34.226Z,11.30
2019-02-18T03:51:34.238Z,11.20
2019-02-18T03:52:34.176Z,10.90
2019-02-18T03:53:34.152Z,11.50
2019-02-18T03:54:34.137Z,11.50
2019-02-18T03:55:34.105Z,11.90
2019-02-18T03:56:34.081Z,11.50
2019-02-18T03:57:34.067Z,12.00
2019-02-18T03:58:34.036Z,12.00
2019-02-18T03:59:34.005Z,11.30
2019-02-18T04:00:33.981Z,11.10
2019-02-18T04:01:33.958Z,11.80
2019-02-18T04:02:33.930Z,11.70
2019-02-18T04:03:33.906Z,11.60
2019-02-18T04:04:33.882Z,11.20
2019-02-18T04:05:33.855Z,11.40
2019-02-18T04:06:33.832Z,11.50
2019-02-18T04:07:33.813Z,11.60
2019-02-18T04:08:42.441Z,11.00
2019-02-18T04:09:33.759Z,11.00
2019-02-18T04:10:33.734Z,11.60
2019-02-18T04:11:33.709Z,10.80
2019-02-18T04:12:33.684Z,10.70
2019-02-18T04:13:33.708Z,11.00
2019-02-18T04:14:33.635Z,11.00
2019-02-18T04:15:33.608Z,10.80
2019-02-18T04:16:33.585Z,11.30
2019-02-18T04:17:33.559Z,11.90
2019-02-18T04:18:33.535Z,11.20
2019-02-18T04:19:33.510Z,11.50
2019-02-18T04:20:33.486Z,11.40
2019-02-18T04:21:33.460Z,11.60
2019-02-18T04:22:33.439Z,11.00
2019-02-18T04:23:33.411Z,11.60
2019-02-18T04:24:33.386Z,10.60
2019-02-18T04:25:33.362Z,11.50
2019-02-18T04:26:33.340Z,10.70
2019-02-18T04:27:33.312Z,11.60
2019-02-18T04:28:33.286Z,11.50
2019-02-18T04:29:33.264Z,11.50
2019-02-18T04:30:33.237Z,11.80
2019-02-18T04:31:33.213Z,12.00
2019-02-18T04:32:33.188Z,11.80
2019-02-18T04:33:33.172Z,10.50
2019-02-18T04:34:33.139Z,11.50
2019-02-18T04:35:33.114Z,11.10
2019-02-18T04:36:33.102Z,11.90
2019-02-18T04:37:33.065Z,12.10
2019-02-18T04:38:33.040Z,11.30
2019-02-18T04:39:33.013Z,12.00
2019-02-18T04:40:33.116Z,11.70
2019-02-18T04:41:32.965Z,11.20
2019-02-18T04:42:32.947Z,11.40
2019-02-18T04:43:32.916Z,11.80
2019-02-18T04:44:32.891Z,11.30
2019-02-18T04:45:32.866Z,11.30
2019-02-18T04:46:32.840Z,11.40
2019-02-18T04:47:32.813Z,11.70
2019-02-18T04:48:32.790Z,11.50
2019-02-18T04:49:32.765Z,11.80
2019-02-18T04:50:32.747Z,11.30
2019-02-18T04:51:32.722Z,11.50
2019-02-18T04:52:32.690Z,11.70
2019-02-18T04:53:32.667Z,11.80
2019-02-18T04:54:32.640Z,12.10
2019-02-18T04:55:32.617Z,12.30
2019-02-18T04:56:32.596Z,12.60
2019-02-18T04:57:32.581Z,12.90
2019-02-18T04:58:32.544Z,11.90
2019-02-18T04:59:32.520Z,12.20
2019-02-18T05:00:32.490Z,12.50
2019-02-18T05:01:32.464Z,11.70
2019-02-18T05:02:32.451Z,11.80
2019-02-18T05:03:32.418Z,12.10
2019-02-18T05:04:32.391Z,12.40
2019-02-18T05:05:32.370Z,12.70
2019-02-18T05:06:32.342Z,12.00
2019-02-18T05:07:32.317Z,11.60
2019-02-18T05:08:32.290Z,12.10
2019-02-18T05:09:32.266Z,11.50
2019-02-18T05:10:32.243Z,11.90
2019-02-18T05:11:32.217Z,12.10
2019-02-18T05:12:32.201Z,12.00
2019-02-18T05:13:32.167Z,12.60
2019-02-18T05:14:32.142Z,12.40
2019-02-18T05:15:32.120Z,12.30
2019-02-18T05:16:32.099Z,12.20
2019-02-18T05:17:32.065Z,12.30
2019-02-18T05:18:32.050Z,12.60
2019-02-18T05:19:32.015Z,12.00
2019-02-18T05:20:31.990Z,11.90
2019-02-18T05:21:31.964Z,12.50
2019-02-18T05:22:31.939Z,12.30
2019-02-18T05:23:31.920Z,12.20
2019-02-18T05:24:31.895Z,12.70
2019-02-18T05:25:31.865Z,12.30
2019-02-18T05:26:31.840Z,13.30
2019-02-18T05:27:33.506Z,11.80
2019-02-18T05:28:31.798Z,12.80
2019-02-18T05:29:31.773Z,13.00
2019-02-18T05:30:31.744Z,12.80
2019-02-18T05:31:31.715Z,12.50
2019-02-18T05:32:31.693Z,12.60
2019-02-18T05:33:31.664Z,12.30
2019-02-18T05:34:31.640Z,12.90
2019-02-18T05:35:31.613Z,12.80
2019-02-18T05:36:31.598Z,12.80
2019-02-18T05:37:31.562Z,12.40
2019-02-18T05:38:31.538Z,12.40
2019-02-18T05:39:31.513Z,12.80
2019-02-18T05:40:31.487Z,12.30
2019-02-18T05:41:31.591Z,12.70
2019-02-18T05:42:31.445Z,12.30
2019-02-18T05:43:31.413Z,12.60
2019-02-18T05:44:31.388Z,12.70
2019-02-18T05:45:31.364Z,11.90
2019-02-18T05:46:31.339Z,13.00
2019-02-18T05:47:31.311Z,12.30
2019-02-18T05:48:33.945Z,12.70
2019-02-18T05:49:31.262Z,12.90
2019-02-18T05:50:31.236Z,12.10
2019-02-18T05:51:31.224Z,12.70
2019-02-18T05:52:31.193Z,12.40
2019-02-18T05:53:31.163Z,12.50
2019-02-18T05:54:31.133Z,12.80
2019-02-18T05:55:31.237Z,12.80
2019-02-18T05:56:31.120Z,12.20
2019-02-18T05:57:31.068Z,12.50
2019-02-18T05:58:31.036Z,12.80
2019-02-18T05:59:31.016Z,12.40
2019-02-18T06:00:30.982Z,13.00
2019-02-18T06:01:30.957Z,13.90
2019-02-18T06:02:30.934Z,13.30
2019-02-18T06:03:30.916Z,12.80
2019-02-18T06:04:30.880Z,14.00
2019-02-18T06:05:30.878Z,13.80
2019-02-18T06:06:30.832Z,13.90
2019-02-18T06:07:30.807Z,13.30
2019-02-18T06:08:30.780Z,13.90
2019-02-18T06:09:30.770Z,13.40
2019-02-18T06:10:30.734Z,13.20
2019-02-18T06:11:30.706Z,14.00
2019-02-18T06:12:30.687Z,13.30
2019-02-18T06:13:30.654Z,13.30
2019-02-18T06:14:30.639Z,13.20
2019-02-18T06:15:30.607Z,13.80
2019-02-18T06:16:30.583Z,13.60
2019-02-18T06:17:30.553Z,13.80
2019-02-18T06:18:30.527Z,13.20
2019-02-18T06:19:30.503Z,13.70
2019-02-18T06:20:30.489Z,14.00
2019-02-18T06:21:30.451Z,18.90
2019-02-18T06:22:30.425Z,15.50
2019-02-18T06:23:30.555Z,14.00
2019-02-18T06:24:30.374Z,13.40
2019-02-18T06:25:30.353Z,13.40
2019-02-18T06:26:30.325Z,14.10
2019-02-18T06:27:30.299Z,14.20
2019-02-18T06:28:30.275Z,14.40
2019-02-18T06:29:30.250Z,14.00
2019-02-18T06:30:30.222Z,15.10
2019-02-18T06:31:30.208Z,14.30
2019-02-18T06:32:30.172Z,14.30
2019-02-18T06:33:30.146Z,14.40
2019-02-18T06:34:30.119Z,14.50
2019-02-18T06:35:30.102Z,13.70
2019-02-18T06:36:30.073Z,14.00
2019-02-18T06:37:30.043Z,14.40
2019-02-18T06:38:30.017Z,14.20
2019-02-18T06:39:40.672Z,13.70
2019-02-18T06:40:29.971Z,14.00
2019-02-18T06:41:29.941Z,12.90
2019-02-18T06:42:29.968Z,13.30
2019-02-18T06:43:29.893Z,12.70
2019-02-18T06:44:29.864Z,12.70
2019-02-18T06:45:29.838Z,13.50
2019-02-18T06:46:29.813Z,13.50
2019-02-18T06:47:29.794Z,14.10
2019-02-18T06:48:29.760Z,14.20
2019-02-18T06:49:29.736Z,14.30
2019-02-18T06:50:29.711Z,14.40
2019-02-18T06:51:29.686Z,13.80
2019-02-18T06:52:29.678Z,14.40
2019-02-18T06:53:29.706Z,14.40
2019-02-18T06:54:29.607Z,13.90
2019-02-18T06:55:29.585Z,14.00
2019-02-18T06:56:29.557Z,14.20
2019-02-18T06:57:29.549Z,14.00
2019-02-18T06:58:29.511Z,15.00
2019-02-18T06:59:29.495Z,15.10
2019-02-18T07:00:29.457Z,13.90
2019-02-18T07:01:29.430Z,13.70
2019-02-18T07:02:29.407Z,14.60
2019-02-18T07:03:29.387Z,14.20
2019-02-18T07:04:29.357Z,13.80
2019-02-18T07:05:29.330Z,13.70
2019-02-18T07:06:29.305Z,13.70
2019-02-18T07:07:29.278Z,13.80
2019-02-18T07:08:29.352Z,14.30
2019-02-18T07:09:29.228Z,13.70
2019-02-18T07:10:29.223Z,13.80
2019-02-18T07:11:29.176Z,12.30
2019-02-18T07:12:29.150Z,12.80
2019-02-18T07:13:29.126Z,13.10
2019-02-18T07:14:29.104Z,12.90
2019-02-18T07:15:29.082Z,14.50
2019-02-18T07:16:29.057Z,14.00
2019-02-18T07:17:29.030Z,13.90
2019-02-18T07:18:28.997Z,13.40
2019-02-18T07:19:28.973Z,13.60
2019-02-18T07:20:28.947Z,13.40
2019-02-18T07:21:28.921Z,13.20
2019-02-18T07:22:28.913Z,13.70
2019-02-18T07:23:28.881Z,13.50
2019-02-18T07:24:28.873Z,12.70
2019-02-18T07:25:28.830Z,13.50
2019-02-18T07:26:28.801Z,14.20
2019-02-18T07:27:28.772Z,13.50
2019-02-18T07:28:28.748Z,13.90
2019-02-18T07:29:28.722Z,14.20
2019-02-18T07:30:28.696Z,13.20
2019-02-18T07:31:28.669Z,13.20
2019-02-18T07:32:28.644Z,13.50
2019-02-18T07:33:28.620Z,14.00
2019-02-18T07:34:28.594Z,13.00
2019-02-18T07:35:28.568Z,13.50
2019-02-18T07:36:28.554Z,12.10
2019-02-18T07:37:28.525Z,12.10
2019-02-18T07:38:28.502Z,13.40
2019-02-18T07:39:28.472Z,12.80
2019-02-18T07:40:28.444Z,13.50
2019-02-18T07:41:28.418Z,13.30
2019-02-18T07:42:28.394Z,13.60
2019-02-18T07:43:28.370Z,13.00
2019-02-18T07:44:28.444Z,11.60
2019-02-18T07:45:28.318Z,11.20
2019-02-18T07:46:28.300Z,10.90
2019-02-18T07:47:28.269Z,10.70
2019-02-18T07:48:28.242Z,11.30
2019-02-18T07:49:28.219Z,11.60
2019-02-18T07:50:28.199Z,10.60
2019-02-18T07:51:28.188Z,10.80
2019-02-18T07:52:28.147Z,10.40
2019-02-18T07:53:28.119Z,11.00
2019-02-18T07:54:28.103Z,10.30
2019-02-18T07:55:28.068Z,10.40
2019-02-18T07:56:28.042Z,10.40
2019-02-18T07:57:28.018Z,10.20
2019-02-18T07:58:27.995Z,10.50
2019-02-18T07:59:27.986Z,11.90
2019-02-18T08:00:27.948Z,10.90
2019-02-18T08:01:27.917Z,10.30
2019-02-18T08:02:27.894Z,10.60
2019-02-18T08:03:27.873Z,10.60
2019-02-18T08:04:27.845Z,10.60
2019-02-18T08:05:27.819Z,10.70
2019-02-18T08:06:27.794Z,11.40
2019-02-18T08:07:27.769Z,10.50
2019-02-18T08:08:27.745Z,10.70
2019-02-18T08:09:27.720Z,9.90
2019-02-18T08:10:27.701Z,10.50
2019-02-18T08:11:27.673Z,10.70
2019-02-18T08:12:27.654Z,10.40
2019-02-18T08:13:27.622Z,10.10
2019-02-18T08:14:27.610Z,10.00
2019-02-18T08:15:27.574Z,10.50
2019-02-18T08:16:27.555Z,10.20
2019-02-18T08:17:27.529Z,10.50
2019-02-18T08:18:27.496Z,10.00
2019-02-18T08:19:27.472Z,9.80
2019-02-18T08:20:27.448Z,9.90
2019-02-18T08:21:27.428Z,9.80
2019-02-18T08:22:27.398Z,9.20
2019-02-18T08:23:27.398Z,9.10
2019-02-18T08:24:27.350Z,9.30
2019-02-18T08:25:27.326Z,9.70
2019-02-18T08:26:27.306Z,9.70
2019-02-18T08:27:27.276Z,9.10
2019-02-18T08:28:27.251Z,9.30
2019-02-18T08:29:27.227Z,9.60
2019-02-18T08:30:27.202Z,9.30
2019-02-18T08:31:27.179Z,9.60
2019-02-18T08:32:27.166Z,10.10
2019-02-18T08:33:27.135Z,10.10
2019-02-18T08:34:27.105Z,10.00
2019-02-18T08:35:27.081Z,9.00
2019-02-18T08:36:27.056Z,9.60
2019-02-18T08:37:27.030Z,9.20
2019-02-18T08:38:27.008Z,10.20
2019-02-18T08:39:26.983Z,9.70
2019-02-18T08:40:26.967Z,10.00
2019-02-18T08:41:26.934Z,9.60
2019-02-18T08:42:26.918Z,9.60
2019-02-18T08:43:26.887Z,9.20
2019-02-18T08:44:26.863Z,9.50
2019-02-18T08:45:26.837Z,9.90
2019-02-18T08:46:26.864Z,9.40
2019-02-18T08:47:26.794Z,9.90
2019-02-18T08:48:26.915Z,9.20
2019-02-18T08:49:26.748Z,9.60
2019-02-18T08:50:26.712Z,10.10
2019-02-18T08:51:26.746Z,10.30
2019-02-18T08:52:26.664Z,10.10
2019-02-18T08:53:26.649Z,11.00
2019-02-18T08:54:26.615Z,9.50
2019-02-18T08:55:26.607Z,10.40
2019-02-18T08:56:26.567Z,10.10
2019-02-18T08:57:26.552Z,9.40
2019-02-18T08:58:26.527Z,9.60
2019-02-18T08:59:26.502Z,10.20
2019-02-18T09:00:26.470Z,10.20
2019-02-18T09:01:26.455Z,9.80
2019-02-18T09:02:26.425Z,10.00
2019-02-18T09:03:26.403Z,9.60
2019-02-18T09:04:28.116Z,10.00
2019-02-18T09:05:26.351Z,10.20
2019-02-18T09:06:26.325Z,9.60
2019-02-18T09:07:26.318Z,10.00
2019-02-18T09:08:26.283Z,9.70
2019-02-18T09:09:26.255Z,10.00
2019-02-18T09:10:33.053Z,9.80
2019-02-18T09:11:26.205Z,10.30
2019-02-18T09:12:26.188Z,9.80
2019-02-18T09:13:26.165Z,10.00
2019-02-18T09:14:26.141Z,10.40
2019-02-18T09:15:26.109Z,9.80
2019-02-18T09:16:26.085Z,10.30
2019-02-18T09:17:26.062Z,9.80
2019-02-18T09:18:26.088Z,10.90
2019-02-18T09:19:26.016Z,9.80
2019-02-18T09:20:25.989Z,9.80
2019-02-18T09:21:25.974Z,10.40
2019-02-18T09:22:25.956Z,9.80
2019-02-18T09:23:25.927Z,9.70
2019-02-18T09:24:26.045Z,10.10
2019-02-18T09:25:25.876Z,10.70
2019-02-18T09:26:25.849Z,10.40
2019-02-18T09:27:25.832Z,10.10
2019-02-18T09:28:25.804Z,9.90
2019-02-18T09:29:25.784Z,10.10
2019-02-18T09:30:25.771Z,10.20
2019-02-18T09:31:25.738Z,10.20
2019-02-18T09:32:25.724Z,10.30
2019-02-18T09:33:25.698Z,10.10
2019-02-18T09:34:25.683Z,9.40
2019-02-18T09:35:25.671Z,10.30
2019-02-18T09:36:25.630Z,10.10
2019-02-18T09:37:25.607Z,10.30
2019-02-18T09:38:25.741Z,9.70
2019-02-18T09:39:31.191Z,10.60
2019-02-18T09:40:25.545Z,9.70
2019-02-18T09:41:25.534Z,9.80
2019-02-18T09:42:26.594Z,9.50
2019-02-18T09:43:25.504Z,9.70
2019-02-18T09:44:25.465Z,9.60
2019-02-18T09:45:25.460Z,10.00
2019-02-18T09:46:25.436Z,10.20
2019-02-18T09:47:25.410Z,9.90
2019-02-18T09:48:25.390Z,9.80
2019-02-18T09:49:25.374Z,10.70
2019-02-18T09:50:25.354Z,10.00
2019-02-18T09:51:25.336Z,9.80
2019-02-18T09:52:25.318Z,9.50
2019-02-18T09:53:25.301Z,10.50
2019-02-18T09:54:25.282Z,10.10
2019-02-18T09:55:25.266Z,10.20
2019-02-18T09:56:25.247Z,10.60
2019-02-18T09:57:25.231Z,10.10
2019-02-18T09:58:25.214Z,10.20
2019-02-18T09:59:25.208Z,10.50
2019-02-18T10:00:25.180Z,10.60
2019-02-18T10:01:25.170Z,10.00
2019-02-18T10:02:25.149Z,10.00
2019-02-18T10:03:32.108Z,9.00
2019-02-18T10:04:25.115Z,9.90
2019-02-18T10:05:25.115Z,10.60
2019-02-18T10:06:25.083Z,10.50
2019-02-18T10:07:25.073Z,11.00
2019-02-18T10:08:25.047Z,10.00
2019-02-18T10:09:25.031Z,9.90
2019-02-18T10:10:25.018Z,10.50
2019-02-18T10:11:25.000Z,10.20
2019-02-18T10:12:24.993Z,10.00
2019-02-18T10:13:25.022Z,10.40
2019-02-18T10:14:24.953Z,9.70
2019-02-18T10:15:24.944Z,10.10
2019-02-18T10:16:25.537Z,9.70
2019-02-18T10:17:24.907Z,10.20
2019-02-18T10:18:24.907Z,9.60
2019-02-18T10:19:24.885Z,9.90
2019-02-18T10:20:24.862Z,9.90
2019-02-18T10:21:24.861Z,10.20
2019-02-18T10:22:24.834Z,10.10
2019-02-18T10:23:24.825Z,10.50
2019-02-18T10:24:24.810Z,9.30
2019-02-18T10:25:24.793Z,10.00
2019-02-18T10:26:24.777Z,9.70
2019-02-18T10:27:24.764Z,9.20
2019-02-18T10:28:24.753Z,10.00
2019-02-18T10:29:24.734Z,9.00
2019-02-18T10:30:24.719Z,9.00
2019-02-18T10:31:24.707Z,9.50
2019-02-18T10:32:24.694Z,8.90
2019-02-18T10:33:24.677Z,9.50
2019-02-18T10:34:24.665Z,9.90
2019-02-18T10:35:26.416Z,9.30
2019-02-18T10:36:25.449Z,9.50
2019-02-18T10:37:24.620Z,10.00
2019-02-18T10:38:24.615Z,9.20
2019-02-18T10:39:24.594Z,9.00
2019-02-18T10:40:24.585Z,9.80
2019-02-18T10:41:24.572Z,9.60
2019-02-18T10:42:24.560Z,9.40
2019-02-18T10:43:32.209Z,9.10
2019-02-18T10:44:24.526Z,9.10
2019-02-18T10:45:24.514Z,9.20
2019-02-18T10:46:24.520Z,9.20
2019-02-18T10:47:24.498Z,9.40
2019-02-18T10:48:24.475Z,9.00
2019-02-18T10:49:24.453Z,10.00
2019-02-18T10:50:24.441Z,9.30
2019-02-18T10:51:24.425Z,9.50
2019-02-18T10:52:24.414Z,10.00
2019-02-18T10:53:24.398Z,10.10
2019-02-18T10:54:24.384Z,9.40
2019-02-18T10:55:24.371Z,10.00
2019-02-18T10:56:24.507Z,9.10
2019-02-18T10:57:24.339Z,9.50
2019-02-18T10:58:24.327Z,9.90
2019-02-18T10:59:24.312Z,9.50
2019-02-18T11:00:24.300Z,9.40
2019-02-18T11:01:24.290Z,9.30
2019-02-18T11:02:24.270Z,10.20
2019-02-18T11:03:24.257Z,9.70
2019-02-18T11:04:24.241Z,9.30
2019-02-18T11:05:24.230Z,9.80
2019-02-18T11:06:24.223Z,10.00
2019-02-18T11:07:24.210Z,9.20
2019-02-18T11:08:24.184Z,9.50
2019-02-18T11:09:24.170Z,9.70
2019-02-18T11:10:24.158Z,9.20
2019-02-18T11:11:24.150Z,9.50
2019-02-18T11:12:24.138Z,9.80
2019-02-18T11:13:24.114Z,9.80
2019-02-18T11:14:24.101Z,9.60
2019-02-18T11:15:24.093Z,9.70
2019-02-18T11:16:24.072Z,9.40
2019-02-18T11:17:24.058Z,9.40
2019-02-18T11:18:24.042Z,10.60
2019-02-18T11:19:24.028Z,9.70
2019-02-18T11:20:24.028Z,9.90
2019-02-18T11:21:24.008Z,9.90
2019-02-18T11:22:23.985Z,10.10
2019-02-18T11:23:23.972Z,10.00
2019-02-18T11:24:23.959Z,9.80
2019-02-18T11:25:23.948Z,10.60
2019-02-18T11:26:23.927Z,9.20
2019-02-18T11:27:23.946Z,9.60
2019-02-18T11:28:23.902Z,9.70
2019-02-18T11:29:23.884Z,9.50
2019-02-18T11:30:23.925Z,9.80
2019-02-18T11:31:23.856Z,10.10
2019-02-18T11:32:23.846Z,10.20
2019-02-18T11:33:23.840Z,9.50
2019-02-18T11:34:23.819Z,9.80
2019-02-18T11:35:23.798Z,10.10
2019-02-18T11:36:23.784Z,9.80
2019-02-18T11:37:23.769Z,9.80
2019-02-18T11:38:23.755Z,9.60
2019-02-18T11:39:23.741Z,9.80
2019-02-18T11:40:23.726Z,9.70
2019-02-18T11:41:27.401Z,9.70
2019-02-18T11:42:23.705Z,9.80
2019-02-18T11:43:23.685Z,9.80
2019-02-18T11:44:23.676Z,9.70
2019-02-18T11:45:23.654Z,10.00
2019-02-18T11:46:23.641Z,10.30
2019-02-18T11:47:23.630Z,9.30
2019-02-18T11:48:23.611Z,9.50
2019-02-18T11:49:23.604Z,9.60
2019-02-18T11:50:23.596Z,9.80
2019-02-18T11:51:23.573Z,10.30
2019-02-18T11:52:23.573Z,10.30
2019-02-18T11:53:23.542Z,9.40
2019-02-18T11:54:23.529Z,9.60
2019-02-18T11:55:23.513Z,10.00
2019-02-18T11:56:23.504Z,10.70
2019-02-18T11:57:23.480Z,10.20
2019-02-18T11:58:23.467Z,10.10
2019-02-18T11:59:24.590Z,9.40
2019-02-18T12:00:23.435Z,10.20
2019-02-18T12:01:23.421Z,10.00
2019-02-18T12:02:23.407Z,9.40
2019-02-18T12:03:23.397Z,10.00
2019-02-18T12:04:23.375Z,9.90
2019-02-18T12:05:23.361Z,9.90
2019-02-18T12:06:23.346Z,10.60
2019-02-18T12:07:23.332Z,10.40
2019-02-18T12:08:23.323Z,9.70
2019-02-18T12:09:23.303Z,10.40
2019-02-18T12:10:23.298Z,9.80
2019-02-18T12:11:23.271Z,10.30
2019-02-18T12:12:23.257Z,10.30
2019-02-18T12:13:23.240Z,9.90
2019-02-18T12:14:23.224Z,10.70
2019-02-18T12:15:23.238Z,10.50
2019-02-18T12:16:23.194Z,9.90
2019-02-18T12:17:23.196Z,9.70
2019-02-18T12:18:23.164Z,10.00
2019-02-18T12:19:23.151Z,10.90
2019-02-18T12:20:23.142Z,10.30
2019-02-18T12:21:23.123Z,10.60
2019-02-18T12:22:23.102Z,10.60
2019-02-18T12:23:23.087Z,10.60
2019-02-18T12:24:23.076Z,10.80
2019-02-18T12:25:23.054Z,10.30
2019-02-18T12:26:23.041Z,10.40
2019-02-18T12:27:23.029Z,10.20
2019-02-18T12:28:23.006Z,10.70
2019-02-18T12:29:26.619Z,10.60
2019-02-18T12:30:22.991Z,10.40
2019-02-18T12:31:23.011Z,10.40
2019-02-18T12:32:22.943Z,10.50
2019-02-18T12:33:22.928Z,9.90
2019-02-18T12:34:22.914Z,10.90
2019-02-18T12:35:30.590Z,10.50
2019-02-18T12:36:22.878Z,10.50
2019-02-18T12:37:22.873Z,10.50
2019-02-18T12:38:22.863Z,11.10
2019-02-18T12:39:22.937Z,10.60
2019-02-18T12:40:22.840Z,9.90
2019-02-18T12:41:22.801Z,11.90
2019-02-18T12:42:22.796Z,11.00
2019-02-18T12:43:22.765Z,10.80
2019-02-18T12:44:22.763Z,10.60
2019-02-18T12:45:22.733Z,10.60
2019-02-18T12:46:22.722Z,10.80
2019-02-18T12:47:22.706Z,10.50
2019-02-18T12:48:22.683Z,11.00
2019-02-18T12:49:22.667Z,10.40
2019-02-18T12:50:22.660Z,11.00
2019-02-18T12:51:22.640Z,10.90
2019-02-18T12:52:22.618Z,11.10
2019-02-18T12:53:22.602Z,11.10
2019-02-18T12:54:22.584Z,11.00
2019-02-18T12:55:22.776Z,10.90
2019-02-18T12:56:22.551Z,11.30
2019-02-18T12:57:22.534Z,11.50